sensor_id;sensor_type;location;lat;lon;timestamp;P1;durP1;ratioP1;P2;durP2;ratioP2
22166;SDS011;11249;52.468;13.776;2022-08-19T00:01:49;18.30;;;16.42;;
22166;SDS011;11249;52.468;13.776;2022-08-19T00:04:27;17.92;;;16.30;;
22166;SDS011;11249;52.468;13.776;2022-08-19T00:06:55;19.40;;;17.33;;
22166;SDS011;11249;52.468;13.776;2022-08-19T00:09:30;19.50;;;17.30;;
22166;SDS011;11249;52.468;13.776;2022-08-19T00:11:57;18.08;;;16.45;;
22166;SDS011;11249;52.468;13.776;2022-08-19T00:14:31;20.35;;;18.25;;
22166;SDS011;11249;52.468;13.776;2022-08-19T00:16:58;19.60;;;17.83;;
22166;SDS011;11249;52.468;13.776;2022-08-19T00:19:32;21.27;;;18.95;;
22166;SDS011;11249;52.468;13.776;2022-08-19T00:21:59;21.80;;;19.58;;
22166;SDS011;11249;52.468;13.776;2022-08-19T00:24:26;20.50;;;18.27;;
22166;SDS011;11249;52.468;13.776;2022-08-19T00:27:00;21.45;;;19.20;;
22166;SDS011;11249;52.468;13.776;2022-08-19T00:29:51;20.27;;;18.38;;
22166;SDS011;11249;52.468;13.776;2022-08-19T00:32:18;20.20;;;18.15;;
22166;SDS011;11249;52.468;13.776;2022-08-19T00:34:52;20.77;;;18.65;;
22166;SDS011;11249;52.468;13.776;2022-08-19T00:37:20;22.15;;;20.05;;
22166;SDS011;11249;52.468;13.776;2022-08-19T00:39:55;23.45;;;19.05;;
22166;SDS011;11249;52.468;13.776;2022-08-19T00:42:22;21.23;;;19.13;;
22166;SDS011;11249;52.468;13.776;2022-08-19T00:44:49;19.83;;;18.02;;
22166;SDS011;11249;52.468;13.776;2022-08-19T00:47:23;20.83;;;18.77;;
22166;SDS011;11249;52.468;13.776;2022-08-19T00:50:03;22.98;;;20.67;;
22166;SDS011;11249;52.468;13.776;2022-08-19T00:52:32;20.35;;;18.25;;
22166;SDS011;11249;52.468;13.776;2022-08-19T00:55:07;23.15;;;20.75;;
22166;SDS011;11249;52.468;13.776;2022-08-19T00:57:46;21.75;;;19.55;;
22166;SDS011;11249;52.468;13.776;2022-08-19T01:00:24;32.50;;;22.52;;
22166;SDS011;11249;52.468;13.776;2022-08-19T01:02:52;33.23;;;21.00;;
22166;SDS011;11249;52.468;13.776;2022-08-19T01:05:26;33.95;;;21.23;;
22166;SDS011;11249;52.468;13.776;2022-08-19T01:08:02;39.05;;;21.65;;
22166;SDS011;11249;52.468;13.776;2022-08-19T01:10:39;24.33;;;20.00;;
22166;SDS011;11249;52.468;13.776;2022-08-19T01:13:09;31.58;;;21.17;;
22166;SDS011;11249;52.468;13.776;2022-08-19T01:15:45;30.40;;;21.50;;
22166;SDS011;11249;52.468;13.776;2022-08-19T01:18:15;31.10;;;22.38;;
22166;SDS011;11249;52.468;13.776;2022-08-19T01:20:50;31.23;;;22.92;;
22166;SDS011;11249;52.468;13.776;2022-08-19T01:23:18;27.50;;;19.83;;
22166;SDS011;11249;52.468;13.776;2022-08-19T01:25:52;32.88;;;22.63;;
22166;SDS011;11249;52.468;13.776;2022-08-19T01:28:23;21.15;;;18.90;;
22166;SDS011;11249;52.468;13.776;2022-08-19T01:31:08;20.20;;;17.13;;
22166;SDS011;11249;52.468;13.776;2022-08-19T01:33:54;23.45;;;20.10;;
22166;SDS011;11249;52.468;13.776;2022-08-19T01:36:33;21.25;;;18.95;;
22166;SDS011;11249;52.468;13.776;2022-08-19T01:39:03;21.08;;;18.90;;
22166;SDS011;11249;52.468;13.776;2022-08-19T01:41:39;21.52;;;19.33;;
22166;SDS011;11249;52.468;13.776;2022-08-19T01:44:06;22.15;;;20.08;;
22166;SDS011;11249;52.468;13.776;2022-08-19T01:46:44;23.92;;;21.52;;
22166;SDS011;11249;52.468;13.776;2022-08-19T01:49:21;25.40;;;22.90;;
22166;SDS011;11249;52.468;13.776;2022-08-19T01:51:56;25.85;;;22.42;;
22166;SDS011;11249;52.468;13.776;2022-08-19T01:54:31;23.67;;;21.23;;
22166;SDS011;11249;52.468;13.776;2022-08-19T01:57:07;25.02;;;22.52;;
22166;SDS011;11249;52.468;13.776;2022-08-19T01:59:36;23.65;;;21.23;;
22166;SDS011;11249;52.468;13.776;2022-08-19T02:02:04;24.08;;;21.63;;
22166;SDS011;11249;52.468;13.776;2022-08-19T02:04:41;22.95;;;20.75;;
22166;SDS011;11249;52.468;13.776;2022-08-19T02:07:08;25.38;;;21.80;;
22166;SDS011;11249;52.468;13.776;2022-08-19T02:09:41;23.15;;;20.85;;
22166;SDS011;11249;52.468;13.776;2022-08-19T02:12:14;24.30;;;21.67;;
22166;SDS011;11249;52.468;13.776;2022-08-19T02:14:42;23.23;;;21.02;;
22166;SDS011;11249;52.468;13.776;2022-08-19T02:17:09;25.30;;;22.60;;
22166;SDS011;11249;52.468;13.776;2022-08-19T02:19:42;24.30;;;22.08;;
22166;SDS011;11249;52.468;13.776;2022-08-19T02:22:08;26.55;;;22.00;;
22166;SDS011;11249;52.468;13.776;2022-08-19T02:24:35;24.88;;;22.35;;
22166;SDS011;11249;52.468;13.776;2022-08-19T02:27:08;25.65;;;23.10;;
22166;SDS011;11249;52.468;13.776;2022-08-19T02:29:41;26.33;;;23.63;;
22166;SDS011;11249;52.468;13.776;2022-08-19T02:32:08;25.38;;;22.92;;
22166;SDS011;11249;52.468;13.776;2022-08-19T02:34:34;24.63;;;22.25;;
22166;SDS011;11249;52.468;13.776;2022-08-19T02:37:08;27.73;;;24.77;;
22166;SDS011;11249;52.468;13.776;2022-08-19T02:40:00;26.48;;;23.73;;
22166;SDS011;11249;52.468;13.776;2022-08-19T02:42:37;27.90;;;25.08;;
22166;SDS011;11249;52.468;13.776;2022-08-19T02:45:04;28.00;;;25.08;;
22166;SDS011;11249;52.468;13.776;2022-08-19T02:47:31;27.45;;;24.73;;
22166;SDS011;11249;52.468;13.776;2022-08-19T02:50:05;28.95;;;24.88;;
22166;SDS011;11249;52.468;13.776;2022-08-19T02:52:39;27.50;;;24.55;;
22166;SDS011;11249;52.468;13.776;2022-08-19T02:55:06;28.45;;;25.73;;
22166;SDS011;11249;52.468;13.776;2022-08-19T02:57:33;26.50;;;23.77;;
22166;SDS011;11249;52.468;13.776;2022-08-19T03:00:07;26.73;;;24.15;;
22166;SDS011;11249;52.468;13.776;2022-08-19T03:02:38;26.60;;;23.35;;
22166;SDS011;11249;52.468;13.776;2022-08-19T03:05:12;27.48;;;24.63;;
22166;SDS011;11249;52.468;13.776;2022-08-19T03:08:05;26.05;;;23.33;;
22166;SDS011;11249;52.468;13.776;2022-08-19T03:10:32;26.60;;;23.45;;
22166;SDS011;11249;52.468;13.776;2022-08-19T03:13:06;27.67;;;24.80;;
22166;SDS011;11249;52.468;13.776;2022-08-19T03:15:32;26.90;;;23.75;;
22166;SDS011;11249;52.468;13.776;2022-08-19T03:18:06;25.70;;;23.00;;
22166;SDS011;11249;52.468;13.776;2022-08-19T03:20:40;25.23;;;22.60;;
22166;SDS011;11249;52.468;13.776;2022-08-19T03:23:15;25.10;;;22.63;;
22166;SDS011;11249;52.468;13.776;2022-08-19T03:25:50;25.05;;;22.35;;
22166;SDS011;11249;52.468;13.776;2022-08-19T03:28:41;26.10;;;23.60;;
22166;SDS011;11249;52.468;13.776;2022-08-19T03:31:24;27.33;;;24.45;;
22166;SDS011;11249;52.468;13.776;2022-08-19T03:34:12;24.90;;;22.33;;
22166;SDS011;11249;52.468;13.776;2022-08-19T03:36:40;26.10;;;23.50;;
22166;SDS011;11249;52.468;13.776;2022-08-19T03:39:14;24.45;;;21.85;;
22166;SDS011;11249;52.468;13.776;2022-08-19T03:41:42;24.35;;;21.90;;
22166;SDS011;11249;52.468;13.776;2022-08-19T03:44:13;23.75;;;21.45;;
22166;SDS011;11249;52.468;13.776;2022-08-19T03:46:55;23.38;;;20.98;;
22166;SDS011;11249;52.468;13.776;2022-08-19T03:49:30;24.48;;;22.17;;
22166;SDS011;11249;52.468;13.776;2022-08-19T03:52:12;24.55;;;21.80;;
22166;SDS011;11249;52.468;13.776;2022-08-19T03:54:39;23.10;;;20.88;;
22166;SDS011;11249;52.468;13.776;2022-08-19T03:57:06;24.58;;;22.05;;
22166;SDS011;11249;52.468;13.776;2022-08-19T03:59:40;25.75;;;23.02;;
22166;SDS011;11249;52.468;13.776;2022-08-19T04:02:09;24.02;;;21.50;;
22166;SDS011;11249;52.468;13.776;2022-08-19T04:04:41;23.42;;;21.10;;
22166;SDS011;11249;52.468;13.776;2022-08-19T04:07:15;22.67;;;20.52;;
22166;SDS011;11249;52.468;13.776;2022-08-19T04:09:48;22.90;;;20.63;;
22166;SDS011;11249;52.468;13.776;2022-08-19T04:12:22;22.75;;;20.42;;
22166;SDS011;11249;52.468;13.776;2022-08-19T04:14:55;21.90;;;19.75;;
22166;SDS011;11249;52.468;13.776;2022-08-19T04:17:21;22.27;;;20.15;;
22166;SDS011;11249;52.468;13.776;2022-08-19T04:19:55;21.17;;;19.08;;
22166;SDS011;11249;52.468;13.776;2022-08-19T04:22:22;21.52;;;19.40;;
22166;SDS011;11249;52.468;13.776;2022-08-19T04:24:52;22.48;;;20.08;;
22166;SDS011;11249;52.468;13.776;2022-08-19T04:27:25;20.60;;;18.80;;
22166;SDS011;11249;52.468;13.776;2022-08-19T04:29:52;22.45;;;20.25;;
22166;SDS011;11249;52.468;13.776;2022-08-19T04:32:26;22.58;;;20.42;;
22166;SDS011;11249;52.468;13.776;2022-08-19T04:34:53;21.95;;;19.75;;
22166;SDS011;11249;52.468;13.776;2022-08-19T04:37:43;20.77;;;18.88;;
22166;SDS011;11249;52.468;13.776;2022-08-19T04:40:10;19.02;;;17.23;;
22166;SDS011;11249;52.468;13.776;2022-08-19T04:43:02;20.00;;;17.95;;
22166;SDS011;11249;52.468;13.776;2022-08-19T04:45:28;20.38;;;18.42;;
22166;SDS011;11249;52.468;13.776;2022-08-19T04:48:08;20.65;;;18.63;;
22166;SDS011;11249;52.468;13.776;2022-08-19T04:50:54;20.15;;;17.77;;
22166;SDS011;11249;52.468;13.776;2022-08-19T04:53:25;18.20;;;16.60;;
22166;SDS011;11249;52.468;13.776;2022-08-19T04:56:07;18.17;;;16.40;;
22166;SDS011;11249;52.468;13.776;2022-08-19T04:58:40;17.63;;;16.02;;
22166;SDS011;11249;52.468;13.776;2022-08-19T05:01:19;18.00;;;16.40;;
22166;SDS011;11249;52.468;13.776;2022-08-19T05:03:56;17.73;;;16.13;;
22166;SDS011;11249;52.468;13.776;2022-08-19T05:06:30;19.48;;;17.63;;
22166;SDS011;11249;52.468;13.776;2022-08-19T05:09:00;20.50;;;18.43;;
22166;SDS011;11249;52.468;13.776;2022-08-19T05:11:32;20.20;;;18.23;;
22166;SDS011;11249;52.468;13.776;2022-08-19T05:14:07;18.90;;;17.10;;
22166;SDS011;11249;52.468;13.776;2022-08-19T05:16:48;19.25;;;17.35;;
22166;SDS011;11249;52.468;13.776;2022-08-19T05:19:14;20.40;;;18.55;;
22166;SDS011;11249;52.468;13.776;2022-08-19T05:22:06;20.83;;;18.15;;
22166;SDS011;11249;52.468;13.776;2022-08-19T05:24:51;23.25;;;20.88;;
22166;SDS011;11249;52.468;13.776;2022-08-19T05:27:37;23.00;;;20.70;;
22166;SDS011;11249;52.468;13.776;2022-08-19T05:30:11;21.80;;;19.80;;
22166;SDS011;11249;52.468;13.776;2022-08-19T05:32:39;23.05;;;20.75;;
22166;SDS011;11249;52.468;13.776;2022-08-19T05:35:06;22.65;;;20.55;;
22166;SDS011;11249;52.468;13.776;2022-08-19T05:37:40;23.98;;;21.65;;
22166;SDS011;11249;52.468;13.776;2022-08-19T05:40:07;25.90;;;23.20;;
22166;SDS011;11249;52.468;13.776;2022-08-19T05:42:35;25.70;;;23.20;;
22166;SDS011;11249;52.468;13.776;2022-08-19T05:45:19;25.02;;;22.63;;
22166;SDS011;11249;52.468;13.776;2022-08-19T05:47:54;25.58;;;23.00;;
22166;SDS011;11249;52.468;13.776;2022-08-19T05:50:35;23.95;;;21.65;;
22166;SDS011;11249;52.468;13.776;2022-08-19T05:53:09;24.10;;;21.83;;
22166;SDS011;11249;52.468;13.776;2022-08-19T05:55:36;24.83;;;22.33;;
22166;SDS011;11249;52.468;13.776;2022-08-19T05:58:11;26.35;;;23.85;;
22166;SDS011;11249;52.468;13.776;2022-08-19T06:00:38;25.90;;;23.30;;
22166;SDS011;11249;52.468;13.776;2022-08-19T06:03:06;26.38;;;23.85;;
22166;SDS011;11249;52.468;13.776;2022-08-19T06:05:39;26.88;;;24.10;;
22166;SDS011;11249;52.468;13.776;2022-08-19T06:08:16;25.20;;;22.67;;
22166;SDS011;11249;52.468;13.776;2022-08-19T06:10:44;24.75;;;22.50;;
22166;SDS011;11249;52.468;13.776;2022-08-19T06:13:10;24.48;;;22.08;;
22166;SDS011;11249;52.468;13.776;2022-08-19T06:15:44;24.92;;;22.63;;
22166;SDS011;11249;52.468;13.776;2022-08-19T06:18:19;24.45;;;22.10;;
22166;SDS011;11249;52.468;13.776;2022-08-19T06:20:46;24.73;;;22.23;;
22166;SDS011;11249;52.468;13.776;2022-08-19T06:23:21;25.10;;;22.70;;
22166;SDS011;11249;52.468;13.776;2022-08-19T06:25:55;23.52;;;21.38;;
22166;SDS011;11249;52.468;13.776;2022-08-19T06:28:28;26.00;;;23.58;;
22166;SDS011;11249;52.468;13.776;2022-08-19T06:30:55;26.05;;;23.55;;
22166;SDS011;11249;52.468;13.776;2022-08-19T06:33:21;28.05;;;25.10;;
22166;SDS011;11249;52.468;13.776;2022-08-19T06:35:55;26.17;;;23.58;;
22166;SDS011;11249;52.468;13.776;2022-08-19T06:38:28;26.65;;;24.20;;
22166;SDS011;11249;52.468;13.776;2022-08-19T06:41:04;25.88;;;23.45;;
22166;SDS011;11249;52.468;13.776;2022-08-19T06:43:33;27.23;;;24.33;;
22166;SDS011;11249;52.468;13.776;2022-08-19T06:46:09;25.05;;;22.75;;
22166;SDS011;11249;52.468;13.776;2022-08-19T06:48:45;26.88;;;24.05;;
22166;SDS011;11249;52.468;13.776;2022-08-19T06:51:21;25.58;;;23.00;;
22166;SDS011;11249;52.468;13.776;2022-08-19T06:53:56;29.98;;;24.60;;
22166;SDS011;11249;52.468;13.776;2022-08-19T06:56:30;26.48;;;23.65;;
22166;SDS011;11249;52.468;13.776;2022-08-19T06:59:01;25.73;;;23.15;;
22166;SDS011;11249;52.468;13.776;2022-08-19T07:01:36;26.02;;;23.42;;
22166;SDS011;11249;52.468;13.776;2022-08-19T07:04:07;25.95;;;23.25;;
22166;SDS011;11249;52.468;13.776;2022-08-19T07:06:41;26.10;;;23.60;;
22166;SDS011;11249;52.468;13.776;2022-08-19T07:09:11;31.38;;;25.95;;
22166;SDS011;11249;52.468;13.776;2022-08-19T07:11:47;25.67;;;23.27;;
22166;SDS011;11249;52.468;13.776;2022-08-19T07:14:16;25.98;;;23.58;;
22166;SDS011;11249;52.468;13.776;2022-08-19T07:16:45;26.38;;;23.48;;
22166;SDS011;11249;52.468;13.776;2022-08-19T07:19:20;29.23;;;26.17;;
22166;SDS011;11249;52.468;13.776;2022-08-19T07:21:49;26.90;;;24.25;;
22166;SDS011;11249;52.468;13.776;2022-08-19T07:24:25;28.23;;;25.63;;
22166;SDS011;11249;52.468;13.776;2022-08-19T07:26:59;28.67;;;25.88;;
22166;SDS011;11249;52.468;13.776;2022-08-19T07:29:40;29.52;;;26.08;;
22166;SDS011;11249;52.468;13.776;2022-08-19T07:32:07;26.75;;;24.25;;
22166;SDS011;11249;52.468;13.776;2022-08-19T07:34:38;30.75;;;26.08;;
22166;SDS011;11249;52.468;13.776;2022-08-19T07:37:11;30.23;;;25.95;;
22166;SDS011;11249;52.468;13.776;2022-08-19T07:39:38;32.08;;;27.42;;
22166;SDS011;11249;52.468;13.776;2022-08-19T07:42:11;31.13;;;26.60;;
22166;SDS011;11249;52.468;13.776;2022-08-19T07:44:38;27.50;;;24.75;;
22166;SDS011;11249;52.468;13.776;2022-08-19T07:47:16;28.40;;;25.58;;
22166;SDS011;11249;52.468;13.776;2022-08-19T07:50:10;27.77;;;24.95;;
22166;SDS011;11249;52.468;13.776;2022-08-19T07:52:44;26.40;;;23.77;;
22166;SDS011;11249;52.468;13.776;2022-08-19T07:55:14;27.05;;;24.23;;
22166;SDS011;11249;52.468;13.776;2022-08-19T07:58:04;28.15;;;24.92;;
22166;SDS011;11249;52.468;13.776;2022-08-19T08:00:37;28.52;;;25.58;;
22166;SDS011;11249;52.468;13.776;2022-08-19T08:03:04;27.67;;;25.08;;
22166;SDS011;11249;52.468;13.776;2022-08-19T08:05:37;27.60;;;24.63;;
22166;SDS011;11249;52.468;13.776;2022-08-19T08:08:22;29.40;;;25.60;;
22166;SDS011;11249;52.468;13.776;2022-08-19T08:11:11;28.27;;;25.52;;
22166;SDS011;11249;52.468;13.776;2022-08-19T08:13:40;28.35;;;25.60;;
22166;SDS011;11249;52.468;13.776;2022-08-19T08:16:07;26.77;;;24.15;;
22166;SDS011;11249;52.468;13.776;2022-08-19T08:18:41;27.77;;;24.77;;
22166;SDS011;11249;52.468;13.776;2022-08-19T08:21:18;28.48;;;25.60;;
22166;SDS011;11249;52.468;13.776;2022-08-19T08:23:45;29.15;;;26.23;;
22166;SDS011;11249;52.468;13.776;2022-08-19T08:26:21;27.10;;;24.48;;
22166;SDS011;11249;52.468;13.776;2022-08-19T08:28:48;28.85;;;25.98;;
22166;SDS011;11249;52.468;13.776;2022-08-19T08:31:22;27.35;;;23.63;;
22166;SDS011;11249;52.468;13.776;2022-08-19T08:33:49;26.42;;;23.83;;
22166;SDS011;11249;52.468;13.776;2022-08-19T08:36:16;26.00;;;23.50;;
22166;SDS011;11249;52.468;13.776;2022-08-19T08:38:50;27.02;;;24.15;;
22166;SDS011;11249;52.468;13.776;2022-08-19T08:44:20;27.83;;;23.98;;
22166;SDS011;11249;52.468;13.776;2022-08-19T08:47:18;26.00;;;23.42;;
22166;SDS011;11249;52.468;13.776;2022-08-19T08:49:49;25.00;;;22.48;;
22166;SDS011;11249;52.468;13.776;2022-08-19T08:52:45;26.42;;;23.65;;
22166;SDS011;11249;52.468;13.776;2022-08-19T08:55:16;24.10;;;21.60;;
22166;SDS011;11249;52.468;13.776;2022-08-19T08:58:03;25.40;;;22.30;;
22166;SDS011;11249;52.468;13.776;2022-08-19T09:00:41;24.88;;;22.40;;
22166;SDS011;11249;52.468;13.776;2022-08-19T09:03:29;24.60;;;22.30;;
22166;SDS011;11249;52.468;13.776;2022-08-19T09:06:03;24.92;;;21.75;;
22166;SDS011;11249;52.468;13.776;2022-08-19T09:08:55;23.98;;;21.35;;
22166;SDS011;11249;52.468;13.776;2022-08-19T09:17:21;23.33;;;20.85;;
22166;SDS011;11249;52.468;13.776;2022-08-19T09:20:21;23.00;;;20.70;;
22166;SDS011;11249;52.468;13.776;2022-08-19T09:22:56;23.02;;;20.15;;
22166;SDS011;11249;52.468;13.776;2022-08-19T09:25:24;22.52;;;20.23;;
22166;SDS011;11249;52.468;13.776;2022-08-19T09:27:55;22.23;;;19.92;;
22166;SDS011;11249;52.468;13.776;2022-08-19T09:30:32;21.08;;;19.02;;
22166;SDS011;11249;52.468;13.776;2022-08-19T09:33:13;20.80;;;18.60;;
22166;SDS011;11249;52.468;13.776;2022-08-19T09:35:40;21.08;;;18.92;;
22166;SDS011;11249;52.468;13.776;2022-08-19T09:38:18;22.17;;;20.20;;
22166;SDS011;11249;52.468;13.776;2022-08-19T09:40:53;21.40;;;19.33;;
22166;SDS011;11249;52.468;13.776;2022-08-19T09:43:20;21.40;;;19.30;;
22166;SDS011;11249;52.468;13.776;2022-08-19T09:46:07;21.83;;;19.73;;
22166;SDS011;11249;52.468;13.776;2022-08-19T09:48:54;20.95;;;18.85;;
22166;SDS011;11249;52.468;13.776;2022-08-19T09:51:38;21.60;;;19.35;;
22166;SDS011;11249;52.468;13.776;2022-08-19T09:54:16;20.80;;;18.77;;
22166;SDS011;11249;52.468;13.776;2022-08-19T09:56:50;21.75;;;19.40;;
22166;SDS011;11249;52.468;13.776;2022-08-19T09:59:24;19.42;;;17.35;;
22166;SDS011;11249;52.468;13.776;2022-08-19T10:01:51;19.63;;;17.50;;
22166;SDS011;11249;52.468;13.776;2022-08-19T10:04:29;19.90;;;17.88;;
22166;SDS011;11249;52.468;13.776;2022-08-19T10:07:14;20.17;;;18.15;;
22166;SDS011;11249;52.468;13.776;2022-08-19T10:10:01;19.33;;;17.42;;
22166;SDS011;11249;52.468;13.776;2022-08-19T10:12:29;20.23;;;18.10;;
22166;SDS011;11249;52.468;13.776;2022-08-19T10:15:04;18.88;;;17.17;;
22166;SDS011;11249;52.468;13.776;2022-08-19T10:17:32;20.17;;;18.25;;
22166;SDS011;11249;52.468;13.776;2022-08-19T10:20:19;21.27;;;18.85;;
22166;SDS011;11249;52.468;13.776;2022-08-19T10:22:46;19.58;;;17.85;;
22166;SDS011;11249;52.468;13.776;2022-08-19T10:25:19;22.65;;;17.08;;
22166;SDS011;11249;52.468;13.776;2022-08-19T10:27:46;20.42;;;18.15;;
22166;SDS011;11249;52.468;13.776;2022-08-19T10:30:16;20.55;;;18.65;;
22166;SDS011;11249;52.468;13.776;2022-08-19T10:32:50;21.20;;;19.23;;
22166;SDS011;11249;52.468;13.776;2022-08-19T10:35:23;22.00;;;20.02;;
22166;SDS011;11249;52.468;13.776;2022-08-19T10:37:52;21.60;;;19.75;;
22166;SDS011;11249;52.468;13.776;2022-08-19T10:40:27;22.15;;;20.08;;
22166;SDS011;11249;52.468;13.776;2022-08-19T10:43:01;21.90;;;19.92;;
22166;SDS011;11249;52.468;13.776;2022-08-19T10:45:34;22.67;;;20.38;;
22166;SDS011;11249;52.468;13.776;2022-08-19T10:48:01;22.02;;;19.90;;
22166;SDS011;11249;52.468;13.776;2022-08-19T10:50:27;22.42;;;20.27;;
22166;SDS011;11249;52.468;13.776;2022-08-19T10:53:20;20.65;;;18.83;;
22166;SDS011;11249;52.468;13.776;2022-08-19T10:55:51;19.88;;;17.83;;
22166;SDS011;11249;52.468;13.776;2022-08-19T10:58:43;19.17;;;17.33;;
22166;SDS011;11249;52.468;13.776;2022-08-19T11:01:17;19.80;;;17.73;;
22166;SDS011;11249;52.468;13.776;2022-08-19T11:03:50;20.23;;;18.23;;
22166;SDS011;11249;52.468;13.776;2022-08-19T11:06:17;19.02;;;17.10;;
22166;SDS011;11249;52.468;13.776;2022-08-19T11:08:55;19.67;;;17.90;;
22166;SDS011;11249;52.468;13.776;2022-08-19T11:11:22;19.98;;;18.15;;
22166;SDS011;11249;52.468;13.776;2022-08-19T11:13:49;22.20;;;18.17;;
22166;SDS011;11249;52.468;13.776;2022-08-19T11:16:23;18.58;;;16.65;;
22166;SDS011;11249;52.468;13.776;2022-08-19T11:18:53;18.10;;;16.00;;
22166;SDS011;11249;52.468;13.776;2022-08-19T11:21:31;18.38;;;16.60;;
22166;SDS011;11249;52.468;13.776;2022-08-19T11:24:01;18.33;;;16.47;;
22166;SDS011;11249;52.468;13.776;2022-08-19T11:26:37;18.08;;;16.35;;
22166;SDS011;11249;52.468;13.776;2022-08-19T11:29:05;18.77;;;16.60;;
22166;SDS011;11249;52.468;13.776;2022-08-19T11:31:44;18.60;;;16.45;;
22166;SDS011;11249;52.468;13.776;2022-08-19T11:34:19;17.65;;;15.88;;
22166;SDS011;11249;52.468;13.776;2022-08-19T11:36:55;17.73;;;15.93;;
22166;SDS011;11249;52.468;13.776;2022-08-19T11:39:39;17.20;;;15.70;;
22166;SDS011;11249;52.468;13.776;2022-08-19T11:42:19;18.15;;;16.35;;
22166;SDS011;11249;52.468;13.776;2022-08-19T11:45:28;17.42;;;15.65;;
22166;SDS011;11249;52.468;13.776;2022-08-19T11:47:56;17.77;;;16.15;;
22166;SDS011;11249;52.468;13.776;2022-08-19T11:50:36;16.92;;;15.23;;
22166;SDS011;11249;52.468;13.776;2022-08-19T11:53:04;18.67;;;17.08;;
22166;SDS011;11249;52.468;13.776;2022-08-19T11:55:38;15.80;;;14.20;;
22166;SDS011;11249;52.468;13.776;2022-08-19T11:58:09;17.65;;;15.88;;
22166;SDS011;11249;52.468;13.776;2022-08-19T12:00:44;18.48;;;16.77;;
22166;SDS011;11249;52.468;13.776;2022-08-19T12:03:17;17.85;;;16.25;;
22166;SDS011;11249;52.468;13.776;2022-08-19T12:05:52;17.45;;;15.75;;
22166;SDS011;11249;52.468;13.776;2022-08-19T12:08:26;18.48;;;16.58;;
22166;SDS011;11249;52.468;13.776;2022-08-19T12:10:53;18.25;;;16.45;;
22166;SDS011;11249;52.468;13.776;2022-08-19T12:13:27;17.23;;;15.63;;
22166;SDS011;11249;52.468;13.776;2022-08-19T12:15:54;16.80;;;15.20;;
22166;SDS011;11249;52.468;13.776;2022-08-19T12:18:21;17.75;;;16.13;;
22166;SDS011;11249;52.468;13.776;2022-08-19T12:20:55;17.80;;;16.15;;
22166;SDS011;11249;52.468;13.776;2022-08-19T12:23:22;16.80;;;15.02;;
22166;SDS011;11249;52.468;13.776;2022-08-19T12:25:49;17.98;;;16.30;;
22166;SDS011;11249;52.468;13.776;2022-08-19T12:28:24;19.48;;;17.48;;
22166;SDS011;11249;52.468;13.776;2022-08-19T12:30:51;18.52;;;16.92;;
22166;SDS011;11249;52.468;13.776;2022-08-19T12:33:25;20.23;;;18.30;;
22166;SDS011;11249;52.468;13.776;2022-08-19T12:36:01;19.95;;;17.83;;
22166;SDS011;11249;52.468;13.776;2022-08-19T12:38:30;20.33;;;18.38;;
22166;SDS011;11249;52.468;13.776;2022-08-19T12:40:58;19.42;;;17.55;;
22166;SDS011;11249;52.468;13.776;2022-08-19T12:43:31;19.88;;;17.80;;
22166;SDS011;11249;52.468;13.776;2022-08-19T12:46:05;19.58;;;17.63;;
22166;SDS011;11249;52.468;13.776;2022-08-19T12:48:36;18.45;;;16.63;;
22166;SDS011;11249;52.468;13.776;2022-08-19T12:51:13;17.92;;;16.05;;
22166;SDS011;11249;52.468;13.776;2022-08-19T12:53:48;18.15;;;16.52;;
22166;SDS011;11249;52.468;13.776;2022-08-19T12:56:22;17.48;;;15.88;;
22166;SDS011;11249;52.468;13.776;2022-08-19T12:58:49;16.70;;;15.05;;
22166;SDS011;11249;52.468;13.776;2022-08-19T13:01:22;17.08;;;15.55;;
22166;SDS011;11249;52.468;13.776;2022-08-19T13:03:49;17.50;;;15.80;;
22166;SDS011;11249;52.468;13.776;2022-08-19T13:06:25;17.55;;;15.95;;
22166;SDS011;11249;52.468;13.776;2022-08-19T13:08:53;17.23;;;15.38;;
22166;SDS011;11249;52.468;13.776;2022-08-19T13:11:27;16.25;;;14.73;;
22166;SDS011;11249;52.468;13.776;2022-08-19T13:13:58;16.77;;;15.10;;
22166;SDS011;11249;52.468;13.776;2022-08-19T13:16:26;15.27;;;13.88;;
22166;SDS011;11249;52.468;13.776;2022-08-19T13:19:00;17.58;;;15.77;;
22166;SDS011;11249;52.468;13.776;2022-08-19T13:21:29;17.42;;;15.65;;
22166;SDS011;11249;52.468;13.776;2022-08-19T13:24:03;16.45;;;14.82;;
22166;SDS011;11249;52.468;13.776;2022-08-19T13:26:36;17.27;;;15.68;;
22166;SDS011;11249;52.468;13.776;2022-08-19T13:29:03;16.55;;;15.02;;
22166;SDS011;11249;52.468;13.776;2022-08-19T13:31:55;18.45;;;14.88;;
22166;SDS011;11249;52.468;13.776;2022-08-19T13:34:43;17.95;;;14.45;;
22166;SDS011;11249;52.468;13.776;2022-08-19T13:37:19;15.40;;;13.93;;
22166;SDS011;11249;52.468;13.776;2022-08-19T13:40:07;15.70;;;14.13;;
22166;SDS011;11249;52.468;13.776;2022-08-19T13:42:46;15.32;;;13.85;;
22166;SDS011;11249;52.468;13.776;2022-08-19T13:45:15;15.35;;;13.88;;
22166;SDS011;11249;52.468;13.776;2022-08-19T13:47:51;15.00;;;13.77;;
22166;SDS011;11249;52.468;13.776;2022-08-19T13:50:26;15.32;;;13.90;;
22166;SDS011;11249;52.468;13.776;2022-08-19T13:53:00;15.63;;;13.90;;
22166;SDS011;11249;52.468;13.776;2022-08-19T13:55:27;15.52;;;14.13;;
22166;SDS011;11249;52.468;13.776;2022-08-19T13:57:55;14.93;;;13.52;;
22166;SDS011;11249;52.468;13.776;2022-08-19T14:00:32;13.57;;;12.35;;
22166;SDS011;11249;52.468;13.776;2022-08-19T14:03:07;14.30;;;13.00;;
22166;SDS011;11249;52.468;13.776;2022-08-19T14:05:40;15.73;;;14.32;;
22166;SDS011;11249;52.468;13.776;2022-08-19T14:08:07;15.68;;;13.27;;
22166;SDS011;11249;52.468;13.776;2022-08-19T14:10:40;16.02;;;14.43;;
22166;SDS011;11249;52.468;13.776;2022-08-19T14:13:10;15.73;;;13.75;;
22166;SDS011;11249;52.468;13.776;2022-08-19T14:15:47;15.35;;;13.93;;
22166;SDS011;11249;52.468;13.776;2022-08-19T14:18:15;15.45;;;13.98;;
22166;SDS011;11249;52.468;13.776;2022-08-19T14:20:43;15.23;;;13.82;;
22166;SDS011;11249;52.468;13.776;2022-08-19T14:23:17;15.02;;;13.65;;
22166;SDS011;11249;52.468;13.776;2022-08-19T14:25:51;14.77;;;13.55;;
22166;SDS011;11249;52.468;13.776;2022-08-19T14:28:18;15.40;;;13.90;;
22166;SDS011;11249;52.468;13.776;2022-08-19T14:30:44;15.13;;;13.68;;
22166;SDS011;11249;52.468;13.776;2022-08-19T14:33:21;14.40;;;12.93;;
22166;SDS011;11249;52.468;13.776;2022-08-19T14:35:53;14.55;;;13.25;;
22166;SDS011;11249;52.468;13.776;2022-08-19T14:38:26;14.90;;;13.38;;
22166;SDS011;11249;52.468;13.776;2022-08-19T14:41:06;14.85;;;13.35;;
22166;SDS011;11249;52.468;13.776;2022-08-19T14:43:40;15.68;;;14.18;;
22166;SDS011;11249;52.468;13.776;2022-08-19T14:46:07;16.30;;;14.65;;
22166;SDS011;11249;52.468;13.776;2022-08-19T14:48:49;15.90;;;14.32;;
22166;SDS011;11249;52.468;13.776;2022-08-19T14:51:34;15.75;;;14.30;;
22166;SDS011;11249;52.468;13.776;2022-08-19T14:54:08;16.38;;;13.93;;
22166;SDS011;11249;52.468;13.776;2022-08-19T14:56:35;15.02;;;13.65;;